Latest Weather Observations for Khancoban

IDN60801

Issued at 8:42 pm EST Wednesday 5 August 2020 (issued every 10 minutes, with the page automatically refreshed every 10 minutes)

About weather observations | Map of weather stations | Latest weather observations for NSW | Other Formats
Station Details ID: 072162 Name: KHANCOBAN AWS Lat: -36.23 Lon: 148.14 Height: 339.3 m
Data from the previous 72 hours. | See also: Recent months at Khancoban
Date/Time
EST
Temp
°C
App
Temp
°C
Dew
Point
°C
Rel
Hum
%
Delta-T
°C
Wind Press
QNH
hPa
Press
MSL
hPa
Rain since
9am
mm
Dir  Spd
km/h
Gust
km/h
Spd
kts
Gust
kts
05/08:30pm 3.9 2.6 3.9 100 0.0 CALM 0 7 0 4 1016.8 1017.3 0.6
05/08:00pm 4.6 3.3 3.9 95 0.3 CALM 0 13 0 7 1016.7 1017.2 0.4
05/07:30pm 5.0 2.7 4.9 99 0.0 S 6 15 3 8 1016.7 1017.2 0.4
05/07:00pm 5.2 3.8 3.4 88 0.8 CALM 0 0 0 0 1016.0 1016.5 0.0
05/06:30pm 5.4 4.0 3.6 88 0.8 CALM 0 0 0 0 1015.8 1016.3 0.0
05/06:00pm 5.5 4.0 2.8 83 1.1 CALM 0 0 0 0 1015.5 1016.0 0.0
05/05:30pm 6.1 4.5 2.6 78 1.5 CALM 0 4 0 2 1015.2 1015.7 0.0
05/05:00pm 6.6 4.9 2.1 73 1.9 CALM 0 0 0 0 1015.2 1015.7 0.0
05/04:30pm 6.9 5.2 1.8 70 2.1 CALM 0 0 0 0 1015.0 1015.6 0.0
05/04:00pm 6.9 4.8 1.6 69 2.2 N 2 15 1 8 1014.9 1015.5 0.0
05/03:30pm 7.0 4.5 1.5 68 2.3 NW 4 15 2 8 1014.8 1015.4 0.0
05/03:00pm 6.9 3.0 1.0 66 2.4 NW 11 17 6 9 1014.8 1015.4 0.0
05/02:30pm 7.2 4.2 1.9 69 2.2 NW 7 13 4 7 1014.7 1015.3 0.0
05/02:00pm 7.4 4.8 1.0 64 2.6 NW 4 13 2 7 1014.7 1015.3 0.0
05/01:30pm 7.1 4.9 0.8 64 2.6 NW 2 13 1 7 1014.6 1015.2 0.0
05/01:00pm 6.7 2.9 1.8 71 2.0 WNW 11 24 6 13 1014.8 1015.4 0.0
05/12:30pm 7.3 4.4 2.8 73 1.9 WNW 7 15 4 8 1014.8 1015.4 0.0
05/12:00pm 7.0 3.5 3.6 79 1.5 NNW 11 17 6 9 1015.3 1015.8 0.0
05/11:30am 5.7 1.7 2.7 81 1.3 NNW 13 20 7 11 1015.4 1015.9 0.0
05/11:00am 4.7 0.0 2.9 88 0.7 NNW 17 22 9 12 1015.4 1015.9 0.0
05/10:30am 4.5 -0.1 1.4 80 1.2 N 15 22 8 12 1015.4 1015.9 0.0
05/10:00am 4.1 -0.9 1.3 82 1.1 N 17 30 9 16 1015.0 1015.6 0.0
05/09:30am 4.0 -0.7 1.2 82 1.1 NNW 15 24 8 13 1014.7 1015.3 0.0
05/09:00am 3.9 -0.8 0.8 80 1.2 NNW 15 24 8 13 1014.6 1015.2 0.6
05/08:30am 3.8 -0.5 1.2 83 1.0 NNW 13 20 7 11 1014.3 1014.8 0.6
05/08:00am 3.8 -0.5 0.7 80 1.2 NNW 13 19 7 10 1014.1 1014.6 0.6
05/07:30am 3.7 -0.2 0.9 82 1.1 N 11 17 6 9 1013.8 1014.3 0.6
05/07:00am 3.5 0.5 1.1 84 0.9 NNW 6 11 3 6 1013.5 1014.0 0.6
05/06:30am 3.5 -0.4 0.9 83 1.0 N 11 17 6 9 1013.3 1013.8 0.6
05/06:00am 3.5 -1.5 1.1 84 0.9 N 17 26 9 14 1013.1 1013.6 0.6
05/05:30am 4.1 -1.0 0.6 78 1.4 NNW 17 22 9 12 1012.8 1013.3 0.6
05/05:00am 4.2 -0.5 0.7 78 1.4 N 15 20 8 11 1012.4 1012.9 0.6
05/04:30am 4.4 -0.3 0.7 77 1.5 N 15 20 8 11 1012.5 1013.0 0.6
05/04:00am 4.4 0.1 0.7 77 1.5 N 13 19 7 10 1012.3 1012.8 0.6
05/03:30am 4.4 0.5 0.9 78 1.4 NNW 11 19 6 10 1012.5 1013.0 0.6
05/03:00am 4.7 0.7 0.3 73 1.7 NNW 11 17 6 9 1012.6 1013.1 0.6
05/02:30am 4.8 0.1 0.6 74 1.7 N 15 20 8 11 1012.5 1013.0 0.6
05/02:00am 4.9 0.2 0.7 74 1.7 N 15 22 8 12 1012.9 1013.4 0.6
05/01:30am 4.9 0.2 0.7 74 1.7 NW 15 24 8 13 1013.0 1013.5 0.6
05/01:00am 5.3 0.2 0.9 73 1.8 NNW 17 22 9 12 1012.9 1013.4 0.6
05/12:30am 5.4 0.7 0.8 72 1.8 N 15 20 8 11 1012.9 1013.4 0.6
05/12:00am 4.8 1.3 1.5 79 1.3 N 9 19 5 10 1013.1 1013.6 0.6
 
Date/Time
EST
Temp
°C
App
Temp
°C
Dew
Point
°C
Rel
Hum
%
Delta-T
°C
Wind Press
QNH
hPa
Press
MSL
hPa
Rain since
9am
mm
Dir  Spd
km/h
Gust
km/h
Spd
kts
Gust
kts
04/11:30pm 4.6 1.1 1.5 80 1.2 NNW 9 17 5 9 1013.3 1013.8 0.6
04/11:00pm 5.0 0.7 0.9 75 1.6 N 13 17 7 9 1013.4 1013.9 0.6
04/10:30pm 5.3 1.3 0.5 71 1.9 N 11 17 6 9 1013.4 1013.9 0.6
04/10:00pm 5.4 2.3 0.0 68 2.1 N 6 9 3 5 1013.9 1014.4 0.6
04/09:30pm 5.2 1.5 0.2 70 2.0 WNW 9 11 5 6 1014.3 1014.8 0.6
04/09:00pm 5.5 0.7 -0.1 67 2.2 NW 15 20 8 11 1014.3 1014.8 0.6
04/08:30pm 5.3 0.9 0.1 69 2.0 NNW 13 19 7 10 1014.2 1014.7 0.6
04/08:00pm 5.4 0.9 -0.4 66 2.2 WNW 13 20 7 11 1014.1 1014.6 0.6
04/07:30pm 5.7 2.5 -0.6 64 2.4 N 6 9 3 5 1013.8 1014.3 0.6
04/07:00pm 6.0 1.7 -1.4 59 2.8 N 11 13 6 7 1013.6 1014.1 0.6
04/06:30pm 6.1 1.8 -1.5 58 2.9 NNW 11 17 6 9 1013.6 1014.1 0.6
04/06:00pm 6.4 0.6 -1.5 57 3.0 NNW 19 26 10 14 1013.2 1013.7 0.6
04/05:30pm 6.3 1.2 -1.8 56 3.1 WNW 15 26 8 14 1013.2 1013.7 0.6
04/05:00pm 7.2 0.0 -2.2 51 3.6 NW 26 35 14 19 1013.1 1013.6 0.6
04/04:30pm 8.1 1.7 -1.7 50 3.8 WNW 22 30 12 16 1012.8 1013.3 0.6
04/04:00pm 7.6 1.8 -1.4 53 3.5 W 19 24 10 13 1012.2 1012.7 0.6
04/03:30pm 8.0 2.7 -0.5 55 3.4 W 17 24 9 13 1011.5 1012.0 0.6
04/03:00pm 8.2 1.9 -0.8 53 3.6 NW 22 32 12 17 1011.4 1011.9 0.6
04/02:30pm 8.4 2.6 -1.4 50 3.8 NW 19 26 10 14 1011.2 1011.7 0.6
04/02:00pm 9.0 2.4 -0.1 53 3.7 NW 24 33 13 18 1011.1 1011.6 0.6
04/01:30pm 10.1 3.6 0.4 51 4.0 NW 24 32 13 17 1011.0 1011.5 0.6
04/01:00pm 8.7 2.5 -0.6 52 3.7 WNW 22 32 12 17 1011.3 1011.8 0.6
04/12:30pm 10.4 4.0 0.7 51 4.1 WNW 24 33 13 18 1011.3 1011.8 0.6
04/12:00pm 10.3 2.8 1.4 54 3.8 NW 30 41 16 22 1011.4 1011.9 0.6
04/11:30am 9.8 2.4 1.9 58 3.4 NW 30 41 16 22 1011.3 1011.8 0.6
04/11:00am 10.3 4.5 4.2 66 2.8 NNW 24 35 13 19 1011.5 1012.0 0.6
04/10:30am 9.2 4.3 5.0 75 1.9 NNW 20 32 11 17 1012.2 1012.7 0.6
04/10:00am 9.2 5.2 6.6 84 1.2 NNW 17 22 9 12 1011.9 1012.4 0.6
04/09:30am 8.7 6.1 7.8 94 0.4 NNW 11 19 6 10 1011.9 1012.4 0.6
04/09:00am 8.7 4.8 7.0 89 0.8 NNW 17 24 9 13 1012.2 1012.7 0.2
04/08:30am 9.2 4.7 6.3 82 1.4 N 19 24 10 13 1011.5 1012.0 0.2
04/08:00am 9.6 5.5 6.0 78 1.7 N 17 24 9 13 1011.2 1011.7 0.2
04/07:30am 10.0 5.8 5.8 75 2.0 NNW 17 28 9 15 1011.3 1011.8 0.2
04/07:00am 10.1 5.5 5.7 74 2.1 NW 19 26 10 14 1011.0 1011.5 0.2
04/06:30am 10.5 6.3 5.7 72 2.3 NNW 17 26 9 14 1010.6 1011.1 0.2
04/06:00am 10.7 5.5 5.7 71 2.4 N 22 32 12 17 1010.3 1010.8 0.2
04/05:30am 9.5 6.9 6.2 80 1.6 WNW 9 13 5 7 1010.7 1011.2 0.0
04/05:00am 8.7 7.5 6.5 86 1.0 NNW 2 7 1 4 1011.1 1011.6 0.0
04/04:30am 7.9 6.1 7.3 96 0.3 S 6 9 3 5 1011.6 1012.1 0.0
04/04:00am 7.3 5.3 7.2 99 0.0 W 7 13 4 7 1011.8 1012.3 0.0
04/03:30am 6.7 4.6 6.7 100 0.0 W 7 11 4 6 1012.2 1012.7 0.0
04/03:00am 7.1 6.4 7.1 100 0.0 CALM 0 6 0 3 1012.3 1012.8 0.0
04/02:30am 6.8 4.9 6.8 100 0.0 S 6 7 3 4 1012.6 1013.1 0.0
04/02:00am 6.4 5.6 6.4 100 0.0 CALM 0 0 0 0 1012.6 1013.1 0.0
04/01:30am 6.2 4.0 6.2 100 0.0 N 7 9 4 5 1012.8 1013.3 0.0
04/01:00am 6.4 5.6 6.4 100 0.0 CALM 0 0 0 0 1013.2 1013.7 0.0
04/12:30am 6.7 5.6 6.7 100 0.0 S 2 6 1 3 1013.3 1013.8 0.0
04/12:00am 6.7 5.9 6.7 100 0.0 CALM 0 0 0 0 1013.6 1014.1 0.0
 
Date/Time
EST
Temp
°C
App
Temp
°C
Dew
Point
°C
Rel
Hum
%
Delta-T
°C
Wind Press
QNH
hPa
Press
MSL
hPa
Rain since
9am
mm
Dir  Spd
km/h
Gust
km/h
Spd
kts
Gust
kts
03/11:30pm 6.2 4.2 6.2 100 0.0 N 6 11 3 6 1014.4 1014.9 0.0
03/11:00pm 6.4 5.2 6.3 99 0.0 SSW 2 7 1 4 1014.6 1015.2 0.0
03/10:30pm 6.5 5.3 6.4 99 0.0 NE 2 7 1 4 1014.6 1015.2 0.0
03/10:00pm 6.1 3.5 6.1 100 0.0 S 9 11 5 6 1015.0 1015.6 0.0
03/09:30pm 7.3 4.4 6.6 95 0.3 NE 11 13 6 7 1014.6 1015.2 0.0
03/09:00pm 5.9 3.5 5.2 95 0.3 ENE 7 11 4 6 1015.0 1015.6 0.0
03/08:30pm 6.2 4.0 5.5 95 0.3 NNE 6 7 3 4 1015.4 1015.9 0.0
03/08:00pm 7.5 4.9 6.3 92 0.6 S 9 13 5 7 1015.6 1016.1 0.0
03/07:30pm 7.6 5.4 5.2 85 1.1 SSW 6 9 3 5 1015.6 1016.1 0.0
03/07:00pm 8.2 7.1 5.3 82 1.3 CALM 0 0 0 0 1015.5 1016.0 0.0
03/06:30pm 8.7 7.8 6.2 84 1.2 CALM 0 0 0 0 1015.2 1015.7 0.0
03/06:00pm 8.5 7.5 5.8 83 1.2 CALM 0 0 0 0 1015.2 1015.7 0.0
03/05:30pm 10.5 9.6 6.1 74 2.1 CALM 0 0 0 0 1015.3 1015.8 0.0
03/05:00pm 12.3 11.6 7.0 70 2.6 CALM 0 0 0 0 1015.3 1015.8 0.0
03/04:30pm 13.5 12.8 7.1 65 3.2 CALM 0 0 0 0 1015.4 1015.9 0.0
03/04:00pm 14.6 14.1 7.9 64 3.4 CALM 0 0 0 0 1015.5 1016.0 0.0
03/03:30pm 14.9 14.4 7.9 63 3.6 CALM 0 0 0 0 1015.7 1016.2 0.0
03/03:00pm 14.5 12.5 7.1 61 3.7 WNW 7 17 4 9 1015.9 1016.4 0.0
03/02:30pm 15.0 14.4 7.3 60 3.9 CALM 0 0 0 0 1016.1 1016.6 0.0
03/02:00pm 14.0 13.2 6.4 60 3.7 CALM 0 7 0 4 1016.6 1017.1 0.0
03/01:30pm 13.2 11.9 7.6 69 2.8 WNW 4 9 2 5 1016.8 1017.3 0.0
03/01:00pm 12.4 11.0 7.1 70 2.6 W 4 7 2 4 1017.4 1018.0 0.0
03/12:30pm 11.5 9.8 6.0 69 2.6 WNW 4 11 2 6 1018.2 1018.8 0.0
03/12:00pm 10.7 9.4 5.9 72 2.3 WNW 2 7 1 4 1019.2 1019.7 0.0
03/11:30am 9.5 8.6 5.9 78 1.7 CALM 0 7 0 4 1019.5 1020.1 0.0
03/11:00am 8.2 7.1 5.0 80 1.4 CALM 0 0 0 0 1020.3 1020.9 0.0
03/10:30am 7.2 6.1 5.2 87 0.9 CALM 0 0 0 0 1020.8 1021.4 0.0
03/10:00am 5.5 4.3 4.5 93 0.4 CALM 0 6 0 3 1021.1 1021.7 0.0
03/09:30am 4.7 3.5 4.7 100 0.0 CALM 0 0 0 0 1021.5 1022.0 0.0
03/09:00am 3.2 1.7 3.2 100 0.0 CALM 0 0 0 0 1021.8 1022.3 0.0
03/08:30am 2.6 1.0 2.6 100 0.0 CALM 0 0 0 0 1022.0 1022.6 0.0
03/08:00am 1.3 -0.5 1.3 100 0.0 CALM 0 0 0 0 1022.0 1022.6 0.0
03/07:30am 0.5 -1.4 0.5 100 0.0 CALM 0 0 0 0 1022.2 1022.8 0.0
03/07:00am 0.2 -1.8 0.2 100 0.0 CALM 0 0 0 0 1021.8 1022.3 0.0
03/06:30am 1.0 -0.8 1.0 100 0.0 CALM 0 0 0 0 1021.6 1022.1 0.0
03/06:00am 0.3 -1.6 0.3 100 0.0 CALM 0 0 0 0 1021.2 1021.8 0.0
03/05:30am 1.0 -0.8 1.0 100 0.0 CALM 0 0 0 0 1021.1 1021.7 0.0
03/05:00am 0.5 -1.4 0.5 100 0.0 CALM 0 0 0 0 1021.0 1021.6 0.0
03/04:30am 2.1 0.4 2.1 100 0.0 CALM 0 0 0 0 1021.2 1021.8 0.0
03/04:00am 1.1 -0.7 1.1 100 0.0 CALM 0 0 0 0 1021.3 1021.9 0.0
03/03:30am 1.7 0.0 1.7 100 0.0 CALM 0 0 0 0 1021.7 1022.2 0.0
03/03:00am 1.5 -0.3 1.5 100 0.0 CALM 0 0 0 0 1022.0 1022.6 0.0
03/02:30am 2.3 0.7 2.3 100 0.0 CALM 0 0 0 0 1022.1 1022.7 0.0
03/02:00am 1.8 0.1 1.8 100 0.0 CALM 0 0 0 0 1022.3 1022.9 0.0
03/01:30am 1.8 0.1 1.8 100 0.0 CALM 0 0 0 0 1022.5 1023.1 0.0
03/01:00am 1.5 -0.3 1.5 100 0.0 CALM 0 0 0 0 1022.9 1023.5 0.0
03/12:30am 2.9 1.0 2.9 100 0.0 SSE 2 7 1 4 1023.1 1023.7 0.0
03/12:00am 3.2 1.7 3.2 100 0.0 CALM 0 0 0 0 1023.5 1024.1 0.0
 
Date/Time
EST
Temp
°C
App
Temp
°C
Dew
Point
°C
Rel
Hum
%
Delta-T
°C
Wind Press
QNH
hPa
Press
MSL
hPa
Rain since
9am
mm
Dir  Spd
km/h
Gust
km/h
Spd
kts
Gust
kts
02/11:30pm 3.6 1.8 3.6 100 0.0 SE 2 6 1 3 1023.8 1024.4 0.0
02/11:00pm 3.8 2.4 3.8 100 0.0 CALM 0 0 0 0 1023.9 1024.5 0.0
02/10:30pm 3.9 2.6 3.9 100 0.0 CALM 0 0 0 0 1023.9 1024.5 0.0
02/10:00pm 3.9 1.8 3.9 100 0.0 SE 4 6 2 3 1023.9 1024.5 0.0
02/09:30pm 4.0 2.7 4.0 100 0.0 CALM 0 6 0 3 1023.8 1024.4 0.0
02/09:00pm 4.9 3.8 4.9 100 0.0 CALM 0 0 0 0 1023.8 1024.4 0.0

Other formats

Comma delimited format used in spreadsheet applications
http://www.bom.gov.au/fwo/IDN60801/IDN60801.94919.axf

JavaScript Object Notation format (JSON) in row-major order
http://www.bom.gov.au/fwo/IDN60801/IDN60801.94919.json

Data quality

Most of these data are generated automatically and are frequently updated. Quality checks on data are not normally performed. It is possible for incorrect values to appear. Refer to information at About Latest Weather Observations and please check the disclaimer before using these data.